Time,TemperatureF,DewpointF,PressureIn,WindDirection,WindDirectionDegrees,WindSpeedMPH,WindSpeedGustMPH,Humidity,HourlyPrecipIn,Conditions,Clouds,dailyrainin,SoftwareType,DateUTC
2013-04-21 00:00:00,49.9,48.0,29.95,SSE,157,4.0,4.0,92,0.00,,,0.00,,2013-04-21 07:00:00,
2013-04-21 00:10:00,49.6,47.0,29.95,ESE,123,4.0,5.0,92,0.00,,,0.00,,2013-04-21 07:10:00,
2013-04-21 00:20:00,49.3,47.0,29.95,ESE,119,0.0,4.0,93,0.00,,,0.00,,2013-04-21 07:20:00,
2013-04-21 00:30:00,49.1,47.0,29.95,ESE,119,0.0,0.0,93,0.00,,,0.00,,2013-04-21 07:30:00,
2013-04-21 00:40:00,49.2,48.0,29.95,ESE,121,1.0,5.0,94,0.00,,,0.00,,2013-04-21 07:40:00,
2013-04-21 00:50:00,49.5,48.0,29.94,ESE,121,0.0,4.0,94,0.00,,,0.00,,2013-04-21 07:50:00,
2013-04-21 01:00:00,50.1,48.0,29.94,ESE,121,0.0,2.0,94,0.00,,,0.00,,2013-04-21 08:00:00,
2013-04-21 01:10:00,50.5,49.0,29.94,ESE,121,0.0,3.0,93,0.00,,,0.00,,2013-04-21 08:10:00,
2013-04-21 01:20:00,50.6,49.0,29.94,ESE,121,0.0,0.0,93,0.00,,,0.00,,2013-04-21 08:20:00,
2013-04-21 01:30:00,51.3,49.0,29.94,ESE,121,0.0,2.0,92,0.00,,,0.00,,2013-04-21 08:30:00,
2013-04-21 01:40:00,51.8,49.0,29.93,ESE,121,0.0,0.0,91,0.00,,,0.00,,2013-04-21 08:40:00,
2013-04-21 01:50:00,52.1,49.0,29.93,ESE,121,2.0,2.0,90,0.00,,,0.00,,2013-04-21 08:50:00,
2013-04-21 02:00:00,51.6,48.0,29.93,ESE,121,0.0,2.0,88,0.00,,,0.00,,2013-04-21 09:00:00,
2013-04-21 02:10:00,51.5,48.0,29.92,ESE,121,0.0,1.0,89,0.00,,,0.00,,2013-04-21 09:10:00,
2013-04-21 02:20:00,51.5,48.0,29.92,ESE,121,0.0,0.0,89,0.00,,,0.00,,2013-04-21 09:20:00,
2013-04-21 02:30:00,51.2,48.0,29.92,ESE,121,0.0,1.0,88,0.00,,,0.00,,2013-04-21 09:30:00,
2013-04-21 02:40:00,51.2,48.0,29.91,ESE,121,0.0,0.0,89,0.00,,,0.00,,2013-04-21 09:40:00,
2013-04-21 02:50:00,51.8,48.0,29.92,ESE,121,0.0,2.0,88,0.00,,,0.00,,2013-04-21 09:50:00,
2013-04-21 03:00:00,51.9,48.0,29.92,ESE,121,0.0,1.0,88,0.00,,,0.00,,2013-04-21 10:00:00,
2013-04-21 03:10:00,52.0,48.0,29.92,ESE,121,1.0,2.0,87,0.00,,,0.00,,2013-04-21 10:10:00,
2013-04-21 03:20:00,52.1,49.0,29.91,ESE,121,2.0,2.0,88,0.00,,,0.00,,2013-04-21 10:20:00,
2013-04-21 03:30:00,51.4,48.0,29.91,ESE,121,2.0,2.0,87,0.00,,,0.00,,2013-04-21 10:30:00,
2013-04-21 03:40:00,50.7,48.0,29.91,ESE,121,0.0,2.0,89,0.00,,,0.00,,2013-04-21 10:40:00,
2013-04-21 03:50:00,50.5,47.0,29.91,ESE,121,0.0,0.0,89,0.00,,,0.00,,2013-04-21 10:50:00,
2013-04-21 04:00:00,50.6,48.0,29.90,ESE,121,0.0,0.0,90,0.00,,,0.00,,2013-04-21 11:00:00,
2013-04-21 04:10:00,51.3,48.0,29.90,ESE,121,0.0,1.0,90,0.00,,,0.00,,2013-04-21 11:10:00,
2013-04-21 04:20:00,52.1,49.0,29.90,ESE,121,0.0,0.0,89,0.00,,,0.00,,2013-04-21 11:20:00,
2013-04-21 04:30:00,52.4,49.0,29.90,ESE,121,0.0,0.0,87,0.00,,,0.00,,2013-04-21 11:30:00,
2013-04-21 04:40:00,53.6,49.0,29.90,ESE,121,0.0,1.0,83,0.00,,,0.00,,2013-04-21 11:40:00,
2013-04-21 04:50:00,54.2,48.0,29.91,ESE,121,0.0,1.0,80,0.00,,,0.00,,2013-04-21 11:50:00,
2013-04-21 05:00:00,53.9,48.0,29.91,ESE,121,0.0,0.0,81,0.00,,,0.00,,2013-04-21 12:00:00,
2013-04-21 05:10:00,54.1,49.0,29.91,ESE,121,0.0,0.0,82,0.00,,,0.00,,2013-04-21 12:10:00,
2013-04-21 05:20:00,54.1,48.0,29.91,ESE,121,0.0,2.0,81,0.00,,,0.00,,2013-04-21 12:20:00,
2013-04-21 05:30:00,53.2,48.0,29.91,ESE,121,2.0,2.0,83,0.00,,,0.00,,2013-04-21 12:30:00,
2013-04-21 05:40:00,52.6,48.0,29.92,East,84,2.0,3.0,85,0.00,,,0.00,,2013-04-21 12:40:00,
2013-04-21 05:50:00,52.7,48.0,29.91,East,84,0.0,2.0,85,0.00,,,0.00,,2013-04-21 12:50:00,
2013-04-21 06:00:00,52.8,48.0,29.91,East,84,0.0,0.0,85,0.00,,,0.00,,2013-04-21 13:00:00,
2013-04-21 06:10:00,52.9,49.0,29.91,East,84,0.0,0.0,85,0.00,,,0.00,,2013-04-21 13:10:00,
2013-04-21 06:20:00,53.9,49.0,29.92,East,84,0.0,0.0,82,0.00,,,0.00,,2013-04-21 13:20:00,
2013-04-21 06:30:00,54.7,48.0,29.92,East,84,0.0,1.0,79,0.00,,,0.00,,2013-04-21 13:30:00,
2013-04-21 06:40:00,54.9,48.0,29.92,East,84,0.0,3.0,78,0.00,,,0.00,,2013-04-21 13:40:00,
2013-04-21 06:50:00,55.7,48.0,29.92,East,84,0.0,1.0,76,0.00,,,0.00,,2013-04-21 13:50:00,
2013-04-21 07:00:00,57.8,48.0,29.92,East,84,0.0,0.0,69,0.00,,,0.00,,2013-04-21 14:00:00,
2013-04-21 07:10:00,59.3,48.0,29.92,East,84,0.0,1.0,65,0.00,,,0.00,,2013-04-21 14:10:00,
2013-04-21 07:20:00,60.9,47.0,29.93,East,84,0.0,3.0,60,0.00,,,0.00,,2013-04-21 14:20:00,
2013-04-21 07:30:00,63.1,46.0,29.93,East,85,0.0,0.0,53,0.00,,,0.00,,2013-04-21 14:30:00,
2013-04-21 07:40:00,65.3,47.0,29.93,East,85,0.0,0.0,52,0.00,,,0.00,,2013-04-21 14:40:00,
2013-04-21 07:50:00,66.7,46.0,29.93,East,85,0.0,1.0,48,0.00,,,0.00,,2013-04-21 14:50:00,
2013-04-21 08:00:00,66.7,49.0,29.93,East,96,1.0,3.0,52,0.00,,,0.00,,2013-04-21 15:00:00,
2013-04-21 08:10:00,66.4,51.0,29.94,West,263,3.0,4.0,57,0.00,,,0.00,,2013-04-21 15:10:00,
2013-04-21 08:20:00,65.7,48.0,29.93,SW,214,0.0,4.0,53,0.00,,,0.00,,2013-04-21 15:20:00,
2013-04-21 08:30:00,66.1,50.0,29.93,SW,219,0.0,2.0,56,0.00,,,0.00,,2013-04-21 15:30:00,
2013-04-21 08:40:00,67.1,50.0,29.93,SW,219,2.0,5.0,54,0.00,,,0.00,,2013-04-21 15:40:00,
2013-04-21 08:50:00,67.9,49.0,29.94,SW,219,0.0,1.0,51,0.00,,,0.00,,2013-04-21 15:50:00,
2013-04-21 09:00:00,69.0,53.0,29.94,SW,219,0.0,1.0,57,0.00,,,0.00,,2013-04-21 16:00:00,
2013-04-21 09:10:00,67.3,53.0,29.94,WNW,290,2.0,3.0,61,0.00,,,0.00,,2013-04-21 16:10:00,
2013-04-21 09:20:00,66.4,54.0,29.94,ENE,60,0.0,3.0,64,0.00,,,0.00,,2013-04-21 16:20:00,
2013-04-21 09:30:00,67.9,54.0,29.94,ENE,60,0.0,1.0,60,0.00,,,0.00,,2013-04-21 16:30:00,
2013-04-21 09:40:00,70.0,54.0,29.94,ENE,60,2.0,3.0,56,0.00,,,0.00,,2013-04-21 16:40:00,
2013-04-21 09:50:00,70.8,54.0,29.95,NNE,27,4.0,5.0,56,0.00,,,0.00,,2013-04-21 16:50:00,
2013-04-21 10:00:00,71.0,52.0,29.95,North,350,4.0,5.0,51,0.00,,,0.00,,2013-04-21 17:00:00,
2013-04-21 10:10:00,71.7,52.0,29.95,North,350,2.0,4.0,49,0.00,,,0.00,,2013-04-21 17:10:00,
2013-04-21 10:20:00,72.9,51.0,29.95,North,350,1.0,3.0,47,0.00,,,0.00,,2013-04-21 17:20:00,
2013-04-21 10:30:00,73.6,53.0,29.95,North,350,2.0,3.0,48,0.00,,,0.00,,2013-04-21 17:30:00,
2013-04-21 10:40:00,74.2,51.0,29.95,SW,218,4.0,5.0,44,0.00,,,0.00,,2013-04-21 17:40:00,
2013-04-21 10:50:00,74.5,49.0,29.96,SW,215,5.0,9.0,40,0.00,,,0.00,,2013-04-21 17:50:00,
2013-04-21 11:00:00,75.0,50.0,29.95,South,183,0.0,7.0,42,0.00,,,0.00,,2013-04-21 18:00:00,
2013-04-21 11:10:00,75.2,50.0,29.95,SSW,200,5.0,9.0,41,0.00,,,0.00,,2013-04-21 18:10:00,
2013-04-21 11:20:00,74.8,50.0,29.95,SSW,211,4.0,9.0,42,0.00,,,0.00,,2013-04-21 18:20:00,
2013-04-21 11:30:00,75.0,50.0,29.95,West,263,5.0,7.0,42,0.00,,,0.00,,2013-04-21 18:30:00,
2013-04-21 11:40:00,74.8,49.0,29.95,West,272,3.0,8.0,40,0.00,,,0.00,,2013-04-21 18:40:00,
2013-04-21 11:50:00,74.5,49.0,29.94,West,274,5.0,7.0,41,0.00,,,0.00,,2013-04-21 18:50:00,
2013-04-21 12:00:00,74.9,48.0,29.94,West,273,5.0,9.0,38,0.00,,,0.00,,2013-04-21 19:00:00,
2013-04-21 12:10:00,73.9,49.0,29.94,West,266,8.0,9.0,42,0.00,,,0.00,,2013-04-21 19:10:00,
2013-04-21 12:20:00,72.5,47.0,29.94,West,279,4.0,9.0,41,0.00,,,0.00,,2013-04-21 19:20:00,
2013-04-21 12:30:00,73.9,48.0,29.94,WSW,248,8.0,8.0,40,0.00,,,0.00,,2013-04-21 19:30:00,
2013-04-21 12:40:00,74.1,49.0,29.94,WNW,295,3.0,8.0,41,0.00,,,0.00,,2013-04-21 19:40:00,
2013-04-21 12:50:00,72.9,48.0,29.93,WNW,284,8.0,10.0,42,0.00,,,0.00,,2013-04-21 19:50:00,
2013-04-21 13:00:00,72.3,48.0,29.93,WNW,291,8.0,10.0,42,0.00,,,0.00,,2013-04-21 20:00:00,
2013-04-21 13:10:00,72.8,47.0,29.93,WNW,290,6.0,10.0,40,0.00,,,0.00,,2013-04-21 20:10:00,
2013-04-21 13:20:00,73.8,48.0,29.93,WNW,295,6.0,11.0,40,0.00,,,0.00,,2013-04-21 20:20:00,
2013-04-21 13:30:00,74.0,47.0,29.92,NW,305,6.0,12.0,39,0.00,,,0.00,,2013-04-21 20:30:00,
2013-04-21 13:40:00,73.1,46.0,29.92,WNW,294,9.0,12.0,38,0.00,,,0.00,,2013-04-21 20:40:00,
2013-04-21 13:50:00,73.6,47.0,29.92,NW,322,5.0,11.0,39,0.00,,,0.00,,2013-04-21 20:50:00,
2013-04-21 14:00:00,74.6,46.0,29.92,WNW,288,5.0,12.0,36,0.00,,,0.00,,2013-04-21 21:00:00,
2013-04-21 14:10:00,75.1,48.0,29.92,West,281,7.0,10.0,38,0.00,,,0.00,,2013-04-21 21:10:00,
2013-04-21 14:20:00,74.4,46.0,29.92,West,267,7.0,12.0,37,0.00,,,0.00,,2013-04-21 21:20:00,
2013-04-21 14:30:00,72.6,46.0,29.92,West,267,9.0,13.0,39,0.00,,,0.00,,2013-04-21 21:30:00,
2013-04-21 14:40:00,71.6,47.0,29.92,West,276,9.0,13.0,41,0.00,,,0.00,,2013-04-21 21:40:00,
2013-04-21 14:50:00,70.5,46.0,29.91,West,274,8.0,15.0,42,0.00,,,0.00,,2013-04-21 21:50:00,
2013-04-21 15:00:00,71.7,47.0,29.91,NW,305,4.0,14.0,41,0.00,,,0.00,,2013-04-21 22:00:00,
2013-04-21 15:10:00,72.6,47.0,29.91,NW,321,10.0,10.0,40,0.00,,,0.00,,2013-04-21 22:10:00,
2013-04-21 15:20:00,72.8,48.0,29.91,NW,323,8.0,11.0,41,0.00,,,0.00,,2013-04-21 22:20:00,
2013-04-21 15:30:00,71.9,46.0,29.91,WNW,289,4.0,15.0,40,0.00,,,0.00,,2013-04-21 22:30:00,
2013-04-21 15:40:00,72.1,46.0,29.91,NW,320,11.0,13.0,40,0.00,,,0.00,,2013-04-21 22:40:00,
2013-04-21 15:50:00,71.5,48.0,29.91,WNW,302,3.0,10.0,43,0.00,,,0.00,,2013-04-21 22:50:00,
2013-04-21 16:00:00,70.5,48.0,29.91,NW,313,7.0,11.0,45,0.00,,,0.00,,2013-04-21 23:00:00,
2013-04-21 16:10:00,70.7,46.0,29.90,NNW,330,8.0,12.0,42,0.00,,,0.00,,2013-04-21 23:10:00,
2013-04-21 16:20:00,71.1,47.0,29.90,NW,308,11.0,15.0,43,0.00,,,0.00,,2013-04-21 23:20:00,
2013-04-21 16:30:00,71.8,46.0,29.90,NNW,336,7.0,11.0,40,0.00,,,0.00,,2013-04-21 23:30:00,
2013-04-21 16:40:00,71.7,47.0,29.90,NNW,328,7.0,12.0,42,0.00,,,0.00,,2013-04-21 23:40:00,
2013-04-21 16:50:00,71.9,47.0,29.89,NW,318,7.0,11.0,41,0.00,,,0.00,,2013-04-21 23:50:00,
2013-04-21 17:00:00,72.3,46.0,29.89,NW,320,12.0,12.0,39,0.00,,,0.00,,2013-04-22 00:00:00,
2013-04-21 17:10:00,72.1,45.0,29.89,NNW,328,7.0,11.0,38,0.00,,,0.00,,2013-04-22 00:10:00,
2013-04-21 17:20:00,72.1,45.0,29.88,NNW,334,11.0,12.0,38,0.00,,,0.00,,2013-04-22 00:20:00,
2013-04-21 17:30:00,72.0,45.0,29.88,NNW,332,7.0,13.0,38,0.00,,,0.00,,2013-04-22 00:30:00,
2013-04-21 17:40:00,72.0,45.0,29.88,North,360,6.0,13.0,38,0.00,,,0.00,,2013-04-22 00:40:00,
2013-04-21 17:50:00,71.5,44.0,29.88,NW,309,6.0,16.0,37,0.00,,,0.00,,2013-04-22 00:50:00,
2013-04-21 18:00:00,70.6,44.0,29.88,NW,316,5.0,16.0,38,0.00,,,0.00,,2013-04-22 01:00:00,
2013-04-21 18:10:00,70.2,44.0,29.88,WNW,286,6.0,15.0,39,0.00,,,0.00,,2013-04-22 01:10:00,
2013-04-21 18:20:00,69.3,45.0,29.88,West,259,7.0,12.0,42,0.00,,,0.00,,2013-04-22 01:20:00,
2013-04-21 18:30:00,68.2,46.0,29.88,NNW,337,2.0,11.0,45,0.00,,,0.00,,2013-04-22 01:30:00,
2013-04-21 18:40:00,67.8,44.0,29.88,NNW,340,5.0,9.0,43,0.00,,,0.00,,2013-04-22 01:40:00,
2013-04-21 18:50:00,66.8,46.0,29.88,NW,315,7.0,8.0,47,0.00,,,0.00,,2013-04-22 01:50:00,
2013-04-21 19:00:00,65.1,46.0,29.88,NW,319,3.0,5.0,50,0.00,,,0.00,,2013-04-22 02:00:00,
2013-04-21 19:10:00,64.5,46.0,29.88,WNW,288,4.0,5.0,51,0.00,,,0.00,,2013-04-22 02:10:00,
2013-04-21 19:20:00,63.3,46.0,29.88,WNW,287,5.0,6.0,53,0.00,,,0.00,,2013-04-22 02:20:00,
2013-04-21 19:30:00,62.7,46.0,29.88,WNW,295,3.0,8.0,55,0.00,,,0.00,,2013-04-22 02:30:00,
2013-04-21 19:40:00,61.5,47.0,29.88,WNW,296,0.0,4.0,58,0.00,,,0.00,,2013-04-22 02:40:00,
2013-04-21 19:50:00,60.9,46.0,29.89,WNW,296,0.0,0.0,59,0.00,,,0.00,,2013-04-22 02:50:00,
2013-04-21 20:00:00,60.4,46.0,29.89,SSE,155,4.0,4.0,60,0.00,,,0.00,,2013-04-22 03:00:00,
2013-04-21 20:10:00,58.6,48.0,29.89,SE,126,6.0,6.0,67,0.00,,,0.00,,2013-04-22 03:10:00,
2013-04-21 20:20:00,56.5,48.0,29.90,SSE,152,2.0,6.0,73,0.00,,,0.00,,2013-04-22 03:20:00,
2013-04-21 20:30:00,56.3,48.0,29.90,SSE,153,0.0,4.0,74,0.00,,,0.00,,2013-04-22 03:30:00,
2013-04-21 20:40:00,55.9,48.0,29.91,SSE,151,0.0,3.0,75,0.00,,,0.00,,2013-04-22 03:40:00,
2013-04-21 20:50:00,56.0,48.0,29.91,SE,141,11.0,12.0,75,0.00,,,0.00,,2013-04-22 03:50:00,
2013-04-21 21:00:00,55.3,48.0,29.92,SE,144,10.0,12.0,76,0.00,,,0.00,,2013-04-22 04:00:00,
2013-04-21 21:10:00,56.0,48.0,29.92,SE,144,10.0,11.0,75,0.00,,,0.00,,2013-04-22 04:10:00,
2013-04-21 21:20:00,56.5,48.0,29.92,SE,143,8.0,10.0,72,0.00,,,0.00,,2013-04-22 04:20:00,
2013-04-21 21:30:00,56.0,47.0,29.92,SE,137,8.0,9.0,73,0.00,,,0.00,,2013-04-22 04:30:00,
2013-04-21 21:40:00,56.2,48.0,29.92,SSE,150,6.0,9.0,73,0.00,,,0.00,,2013-04-22 04:40:00,
2013-04-21 21:50:00,57.4,46.0,29.92,SE,134,7.0,9.0,66,0.00,,,0.00,,2013-04-22 04:50:00,
2013-04-21 22:00:00,56.7,47.0,29.92,SE,140,6.0,6.0,71,0.00,,,0.00,,2013-04-22 05:00:00,
2013-04-21 22:10:00,56.4,47.0,29.93,SSE,153,4.0,5.0,71,0.00,,,0.00,,2013-04-22 05:10:00,
2013-04-21 22:20:00,56.8,47.0,29.93,SSE,160,0.0,5.0,69,0.00,,,0.00,,2013-04-22 05:20:00,
2013-04-21 22:30:00,57.2,46.0,29.92,South,171,1.0,2.0,67,0.00,,,0.00,,2013-04-22 05:30:00,
2013-04-21 22:40:00,57.4,46.0,29.92,SSE,159,0.0,4.0,66,0.00,,,0.00,,2013-04-22 05:40:00,
2013-04-21 22:50:00,57.8,46.0,29.92,SSE,155,0.0,1.0,65,0.00,,,0.00,,2013-04-22 05:50:00,
2013-04-21 23:00:00,58.9,45.0,29.92,SSE,158,0.0,5.0,61,0.00,,,0.00,,2013-04-22 06:00:00,
2013-04-21 23:10:00,58.7,46.0,29.92,SE,144,5.0,6.0,63,0.00,,,0.00,,2013-04-22 06:10:00,
2013-04-21 23:20:00,58.9,46.0,29.92,SSE,150,0.0,5.0,62,0.00,,,0.00,,2013-04-22 06:20:00,
2013-04-21 23:30:00,59.0,46.0,29.92,SSE,158,1.0,3.0,62,0.00,,,0.00,,2013-04-22 06:30:00,
2013-04-21 23:40:00,58.7,46.0,29.92,SSE,157,2.0,2.0,62,0.00,,,0.00,,2013-04-22 06:40:00,
2013-04-21 23:50:00,58.7,46.0,29.91,SSE,155,3.0,5.0,63,0.00,,,0.00,,2013-04-22 06:50:00,